Time;durP1;ratioP1;P1;durP2;ratioP2;P2;SDS_P1;SDS_P2;PMS_P1;PMS_P2;Temp;Humidity;BMP_temperature;BMP_pressure;BME280_temperature;BME280_humidity;BME280_pressure;Samples;Min_cycle;Max_cycle;Signal;HPM_P1;HPM_P2
2021/12/04 00:00:24;;;;;;;58.90;26.38;;;;;;;4.28;100.00;100039.25;5014265;28;20148;-68
2021/12/04 00:02:50;;;;;;;60.92;26.55;;;;;;;4.28;100.00;100037.47;5013893;28;20025;-69
2021/12/04 00:05:17;;;;;;;58.88;25.77;;;;;;;4.27;100.00;100025.25;5018242;28;20029;-69
2021/12/04 00:07:43;;;;;;;59.67;25.38;;;;;;;4.32;100.00;100022.50;5033382;28;20477;-69
2021/12/04 00:10:10;;;;;;;58.70;24.48;;;;;;;4.27;100.00;100027.88;5029860;28;20028;-69
2021/12/04 00:12:36;;;;;;;65.35;26.75;;;;;;;4.29;100.00;100033.09;5013875;28;20536;-70
2021/12/04 00:15:02;;;;;;;62.97;25.92;;;;;;;4.28;100.00;100019.13;5013876;28;20038;-68
2021/12/04 00:17:27;;;;;;;68.10;26.35;;;;;;;4.27;100.00;100006.91;5030355;28;20066;-68
2021/12/04 00:19:53;;;;;;;63.25;26.00;;;;;;;4.29;100.00;100009.50;5031777;28;20079;-68
2021/12/04 00:22:19;;;;;;;64.30;25.85;;;;;;;4.29;100.00;100009.50;5033672;28;20071;-70
2021/12/04 00:24:44;;;;;;;67.53;25.63;;;;;;;4.28;100.00;100002.56;5033565;28;20466;-70
2021/12/04 00:27:10;;;;;;;64.80;25.35;;;;;;;4.29;100.00;99994.63;5023642;28;20033;-69
2021/12/04 00:29:35;;;;;;;65.60;26.67;;;;;;;4.25;100.00;99980.75;4996914;28;20525;-68
2021/12/04 00:32:52;;;;;;;63.13;27.67;;;;;;;4.26;100.00;99989.50;5014101;28;20034;-68
2021/12/04 00:34:55;;;;;;;69.35;26.40;;;;;;;4.24;100.00;99997.38;5008043;28;20470;-68
2021/12/04 00:51:01;;;;;;;68.50;25.13;;;;;;;4.34;100.00;100004.97;5018847;28;20031;-68
2021/12/04 00:53:26;;;;;;;77.13;29.05;;;;;;;4.33;100.00;99998.00;5033005;28;20025;-68
2021/12/04 00:55:52;;;;;;;80.93;27.48;;;;;;;4.32;100.00;99991.06;5032813;28;20025;-68
2021/12/04 00:58:17;;;;;;;80.15;27.52;;;;;;;4.33;100.00;100003.25;5031371;28;20030;-68
2021/12/04 01:00:42;;;;;;;76.95;27.23;;;;;;;4.37;100.00;99997.00;5032609;28;20072;-68
2021/12/04 01:03:08;;;;;;;80.80;28.17;;;;;;;4.33;100.00;99988.38;5031374;28;20055;-68
2021/12/04 01:05:34;;;;;;;73.20;27.88;;;;;;;4.34;100.00;99986.63;5032851;28;20025;-68
2021/12/04 01:07:59;;;;;;;81.35;27.55;;;;;;;4.33;100.00;99977.88;5032873;28;20856;-69
2021/12/04 01:10:24;;;;;;;80.95;29.10;;;;;;;4.34;100.00;99978.78;5017639;28;20037;-69
2021/12/04 01:12:50;;;;;;;80.03;29.30;;;;;;;4.34;100.00;99968.28;5013821;28;20036;-69
2021/12/04 01:15:16;;;;;;;82.88;28.77;;;;;;;4.33;100.00;99956.06;5012846;28;20050;-69
2021/12/04 01:17:41;;;;;;;91.20;28.08;;;;;;;4.31;100.00;99963.13;5012883;28;20022;-69
2021/12/04 01:20:06;;;;;;;92.65;29.05;;;;;;;4.30;100.00;99959.66;5020033;28;20032;-69
2021/12/04 01:22:33;;;;;;;95.40;28.27;;;;;;;4.34;100.00;99955.19;5031753;28;20014;-69
2021/12/04 01:25:00;;;;;;;87.15;28.65;;;;;;;4.32;100.00;99952.59;5032186;28;20026;-69
2021/12/04 01:27:25;;;;;;;92.47;29.42;;;;;;;4.33;100.00;99951.69;5032194;28;20454;-69
2021/12/04 01:29:51;;;;;;;89.22;29.50;;;;;;;4.38;100.00;99947.13;5013906;28;20032;-69
2021/12/04 01:32:17;;;;;;;91.47;28.55;;;;;;;4.34;100.00;99937.69;5013080;28;20458;-69
2021/12/04 01:34:42;;;;;;;96.30;29.83;;;;;;;4.33;100.00;99943.81;5013749;28;20032;-69
2021/12/04 01:37:08;;;;;;;84.82;28.73;;;;;;;4.31;100.00;99944.78;5012817;28;20030;-69
2021/12/04 01:39:33;;;;;;;88.78;28.75;;;;;;;4.35;100.00;99951.63;5012764;28;20030;-69
2021/12/04 01:41:58;;;;;;;81.70;29.17;;;;;;;4.37;100.00;99948.06;5024135;28;20026;-69
2021/12/04 01:44:24;;;;;;;84.82;27.70;;;;;;;4.36;100.00;99942.84;5030564;28;20022;-69
2021/12/04 01:46:55;;;;;;;91.80;27.05;;;;;;;4.33;100.00;99953.47;5032521;28;20470;-69
2021/12/04 01:49:21;;;;;;;98.43;29.65;;;;;;;4.31;100.00;99943.03;5032319;28;20053;-69
2021/12/04 01:51:46;;;;;;;95.30;27.75;;;;;;;4.32;100.00;99954.34;5027388;28;20470;-69
2021/12/04 01:54:11;;;;;;;89.40;26.10;;;;;;;4.34;100.00;99956.03;4978493;28;20049;-70
2021/12/04 01:56:37;;;;;;;100.38;27.92;;;;;;;4.33;100.00;99954.31;5013291;28;20022;-69
2021/12/04 01:59:02;;;;;;;91.45;26.17;;;;;;;4.33;100.00;99951.69;5012445;28;20057;-69
2021/12/04 02:01:31;;;;;;;99.63;27.40;;;;;;;4.34;100.00;99944.69;5012683;28;20113;-68
2021/12/04 02:03:56;;;;;;;100.22;28.70;;;;;;;4.34;100.00;99942.91;5029720;28;20029;-69
2021/12/04 02:06:21;;;;;;;105.07;28.15;;;;;;;4.34;100.00;99932.44;5030594;28;20067;-69
2021/12/04 02:08:47;;;;;;;99.03;28.27;;;;;;;4.33;100.00;99933.34;5032047;28;20439;-70
2021/12/04 02:11:12;;;;;;;97.32;27.75;;;;;;;4.34;100.00;99924.56;5032019;28;20448;-70
2021/12/04 02:13:38;;;;;;;93.90;26.17;;;;;;;4.38;100.00;99938.44;5022529;28;20026;-70
2021/12/04 02:16:17;;;;;;;98.18;26.80;;;;;;;4.38;100.00;99934.03;5013236;28;20049;-70
2021/12/04 02:18:43;;;;;;;99.15;26.77;;;;;;;4.37;100.00;99936.72;4994636;28;20109;-69
2021/12/04 02:21:09;;;;;;;89.65;26.60;;;;;;;4.42;100.00;99926.94;5012654;28;20097;-70
2021/12/04 02:23:34;;;;;;;98.10;26.65;;;;;;;4.40;100.00;99924.38;5015949;28;20029;-71
2021/12/04 02:26:00;;;;;;;104.35;27.63;;;;;;;4.42;100.00;99932.16;5031840;28;20025;-67
2021/12/04 02:28:25;;;;;;;109.38;27.67;;;;;;;4.40;100.00;99939.25;5030041;28;20081;-68
2021/12/04 02:30:50;;;;;;;103.18;28.73;;;;;;;4.43;100.00;99944.38;5031666;28;20025;-70
2021/12/04 02:33:17;;;;;;;101.18;26.00;;;;;;;4.45;100.00;99931.22;5030404;28;20045;-68
2021/12/04 02:35:47;;;;;;;109.32;27.00;;;;;;;4.43;100.00;99931.28;5016153;28;20088;-69
2021/12/04 02:38:13;;;;;;;96.47;26.42;;;;;;;4.46;100.00;99932.94;5012160;28;20026;-69
2021/12/04 02:40:42;;;;;;;102.80;27.25;;;;;;;4.46;100.00;99925.06;5012885;28;20454;-69
2021/12/04 02:43:08;;;;;;;95.95;25.52;;;;;;;4.46;100.00;99935.56;5015721;28;20076;-69
2021/12/04 02:45:33;;;;;;;102.78;26.95;;;;;;;4.43;100.00;99931.28;5025567;28;20444;-68
2021/12/04 02:47:58;;;;;;;111.32;28.33;;;;;;;4.42;100.00;99932.16;5035347;28;20025;-69
2021/12/04 02:50:24;;;;;;;121.57;28.88;;;;;;;4.41;100.00;99927.84;5035375;28;20541;-70
2021/12/04 02:52:49;;;;;;;100.43;27.45;;;;;;;4.39;100.00;99929.66;5033379;28;20033;-68
2021/12/04 02:55:16;;;;;;;121.32;27.38;;;;;;;4.38;100.00;99923.56;5033392;28;20033;-69
2021/12/04 02:57:44;;;;;;;106.43;27.75;;;;;;;4.41;100.00;99922.59;5035189;28;20485;-70
2021/12/04 03:00:14;;;;;;;111.18;29.13;;;;;;;4.39;100.00;99927.03;5034997;28;20025;-69
2021/12/04 03:02:40;;;;;;;115.88;29.08;;;;;;;4.39;100.00;99924.44;5034717;28;20025;-69
2021/12/04 03:05:08;;;;;;;118.65;28.13;;;;;;;4.40;100.00;99937.47;5015238;28;20079;-68
2021/12/04 03:07:34;;;;;;;117.35;27.83;;;;;;;4.41;100.00;99925.22;5016163;28;20405;-69
2021/12/04 03:09:59;;;;;;;108.50;27.60;;;;;;;4.44;100.00;99922.50;5015393;28;20057;-68
2021/12/04 03:12:25;;;;;;;104.15;26.95;;;;;;;4.41;100.00;99920.84;5015024;28;20026;-68
2021/12/04 03:14:54;;;;;;;116.70;29.17;;;;;;;4.45;100.00;99918.97;5015849;28;20057;-69
2021/12/04 03:17:21;;;;;;;114.82;27.77;;;;;;;4.45;100.00;99918.97;5016131;28;20061;-68
2021/12/04 03:19:49;;;;;;;125.03;28.65;;;;;;;4.46;100.00;99918.03;5031421;28;20025;-69
2021/12/04 03:22:15;;;;;;;114.18;28.30;;;;;;;4.45;100.00;99902.38;5034626;28;20140;-69
2021/12/04 03:24:43;;;;;;;118.78;29.00;;;;;;;4.42;100.00;99898.97;5028352;28;20113;-69
2021/12/04 03:27:08;;;;;;;122.28;28.17;;;;;;;4.41;100.00;99894.63;5015832;28;20041;-69
2021/12/04 03:29:39;;;;;;;125.20;27.30;;;;;;;4.45;100.00;99889.25;5014804;28;20478;-69
2021/12/04 03:40:34;;;;;;;129.98;30.30;;;;;;;4.43;100.00;99879.69;5034974;28;20035;-69
2021/12/04 03:42:57;;;;;;;118.55;27.92;;;;;;;4.45;100.00;99865.66;5034275;28;20034;-69
2021/12/04 03:45:22;;;;;;;131.60;28.38;;;;;;;4.45;100.00;99868.28;5032526;28;20398;-69
2021/12/04 03:47:50;;;;;;;136.73;30.55;;;;;;;4.43;100.00;99870.97;5014876;28;20049;-69
2021/12/04 03:50:16;;;;;;;114.50;26.88;;;;;;;4.45;100.00;99863.94;5014350;28;20037;-68
2021/12/04 03:52:42;;;;;;;132.15;29.13;;;;;;;4.47;100.00;99863.88;5014516;28;20105;-69
2021/12/04 03:55:08;;;;;;;116.78;27.52;;;;;;;4.50;100.00;99863.75;5014444;28;20386;-69
2021/12/04 03:57:35;;;;;;;133.20;29.58;;;;;;;4.54;100.00;99857.47;5028385;28;20076;-69
2021/12/04 04:00:01;;;;;;;107.82;27.05;;;;;;;4.57;100.00;99857.38;5033513;28;20029;-68
2021/12/04 04:02:27;;;;;;;114.13;27.45;;;;;;;4.56;100.00;99861.75;5033064;28;20040;-69
2021/12/04 04:04:53;;;;;;;111.80;26.85;;;;;;;4.54;100.00;99865.34;5033732;28;20478;-70
2021/12/04 04:07:19;;;;;;;134.05;28.17;;;;;;;4.57;100.00;99863.47;5026468;28;20029;-69
2021/12/04 04:09:44;;;;;;;113.45;26.73;;;;;;;4.54;100.00;99860.97;5015006;28;20038;-69
2021/12/04 04:12:10;;;;;;;111.70;28.60;;;;;;;4.52;100.00;99861.94;5014060;28;20382;-70
2021/12/04 04:14:35;;;;;;;115.05;26.40;;;;;;;4.52;100.00;99860.16;5014268;28;20109;-69
2021/12/04 04:17:01;;;;;;;111.63;25.67;;;;;;;4.55;100.00;99843.47;5013647;28;20056;-68
2021/12/04 04:19:26;;;;;;;106.25;25.10;;;;;;;4.59;100.00;99845.94;5032213;28;20045;-69
2021/12/04 04:21:55;;;;;;;97.05;25.65;;;;;;;4.61;100.00;99839.78;5031801;28;20099;-69
2021/12/04 04:24:21;;;;;;;104.00;25.50;;;;;;;4.63;100.00;99838.81;5033618;28;20033;-69
2021/12/04 04:26:46;;;;;;;116.88;27.05;;;;;;;4.61;100.00;99838.00;5033540;28;20032;-69
2021/12/04 04:29:13;;;;;;;115.35;26.00;;;;;;;4.66;100.00;99837.84;5021318;28;20034;-69
2021/12/04 04:31:45;;;;;;;105.10;25.58;;;;;;;4.65;100.00;99834.34;5015406;28;20407;-68
2021/12/04 04:34:11;;;;;;;;;;;;;;;4.63;100.00;99838.81;5014221;28;20454;-68
2021/12/04 05:14:39;;;;;;;94.57;23.73;;;;;;;4.67;100.00;99802.84;4990933;28;20034;-70
2021/12/04 05:17:09;;;;;;;96.45;25.52;;;;;;;4.70;100.00;99806.19;5010481;28;20510;-70
2021/12/04 05:19:52;;;;;;;93.93;22.95;;;;;;;4.69;100.00;99799.25;4995115;28;20441;-68
2021/12/04 05:22:17;;;;;;;81.03;22.17;;;;;;;4.69;100.00;99790.50;5014435;28;20493;-70
2021/12/04 05:24:43;;;;;;;86.10;22.05;;;;;;;4.69;100.00;99794.00;5014169;28;20026;-70
2021/12/04 05:27:09;;;;;;;95.20;22.80;;;;;;;4.69;100.00;99778.28;5012855;28;20474;-70
2021/12/04 05:29:35;;;;;;;90.70;22.98;;;;;;;4.70;100.00;99782.59;5012758;28;20033;-68
2021/12/04 05:32:01;;;;;;;77.18;21.23;;;;;;;4.70;100.00;99782.59;5013200;28;20434;-69
2021/12/04 05:34:26;;;;;;;88.68;23.30;;;;;;;4.67;100.00;99787.13;5013522;28;20540;-69
2021/12/04 05:36:51;;;;;;;86.93;24.15;;;;;;;4.68;100.00;99804.53;5012843;28;20038;-69
2021/12/04 05:39:17;;;;;;;87.30;22.83;;;;;;;4.68;100.00;99800.16;5012650;28;20029;-70
2021/12/04 05:41:42;;;;;;;82.38;21.88;;;;;;;4.69;100.00;99782.66;5012885;28;20025;-69
2021/12/04 05:44:09;;;;;;;84.95;23.50;;;;;;;4.70;100.00;99784.34;5028335;28;20067;-69
2021/12/04 05:46:41;;;;;;;92.50;23.02;;;;;;;4.69;100.00;99793.13;5030748;28;20031;-69
2021/12/04 05:49:24;;;;;;;85.30;24.15;;;;;;;4.69;100.00;99790.50;5032144;28;20086;-68
2021/12/04 05:56:54;;;;;;;64.18;20.73;;;;;;;4.64;100.00;99776.72;5013737;28;20105;-69
2021/12/04 05:59:19;;;;;;;70.70;21.45;;;;;;;4.63;100.00;99772.38;5012842;28;20050;-69
2021/12/04 06:01:44;;;;;;;78.90;21.95;;;;;;;4.61;100.00;99769.81;5012665;28;20029;-69
2021/12/04 06:04:10;;;;;;;82.22;22.35;;;;;;;4.59;100.00;99774.25;5017558;28;20080;-69
2021/12/04 06:06:35;;;;;;;84.45;21.80;;;;;;;4.59;100.00;99777.75;5030462;28;20037;-69
2021/12/04 06:09:00;;;;;;;79.90;22.90;;;;;;;4.57;100.00;99779.56;5031991;28;20428;-71
2021/12/04 06:11:26;;;;;;;82.00;19.88;;;;;;;4.58;100.00;99778.66;5032294;28;20362;-72
2021/12/04 06:13:52;;;;;;;86.10;22.85;;;;;;;4.57;100.00;99778.72;5032190;28;20026;-70
2021/12/04 06:16:17;;;;;;;92.50;23.50;;;;;;;4.57;100.00;99771.69;5016212;28;20053;-72
2021/12/04 06:18:46;;;;;;;90.63;23.73;;;;;;;4.59;100.00;99764.63;5017308;28;20033;-69
2021/12/04 06:23:55;;;;;;;94.22;22.55;;;;;;;4.63;100.00;99765.38;5025549;28;20048;-69
2021/12/04 06:26:21;;;;;;;85.03;21.00;;;;;;;4.68;100.00;99762.56;5047716;28;20021;-69
2021/12/04 06:28:46;;;;;;;89.45;23.95;;;;;;;4.64;100.00;99761.81;5035099;28;20069;-70
2021/12/04 06:31:12;;;;;;;89.53;22.40;;;;;;;4.62;100.00;99768.91;5016144;28;20462;-67
2021/12/04 06:33:38;;;;;;;88.28;21.75;;;;;;;4.59;100.00;99762.03;5022435;28;20030;-69
2021/12/04 06:36:05;;;;;;;94.57;22.08;;;;;;;4.54;100.00;99758.72;5020706;28;20037;-69
2021/12/04 06:38:31;;;;;;;87.25;21.58;;;;;;;4.53;100.00;99764.03;5033816;28;20033;-69
2021/12/04 06:40:57;;;;;;;91.00;21.90;;;;;;;4.53;100.00;99766.66;5035705;28;20033;-69
2021/12/04 06:43:23;;;;;;;86.45;21.02;;;;;;;4.50;100.00;99778.09;5035544;28;20018;-69
2021/12/04 06:46:02;;;;;;;96.13;22.05;;;;;;;4.47;100.00;99783.44;5035497;28;20032;-70
2021/12/04 06:53:58;;;;;;;76.53;19.95;;;;;;;4.36;100.00;99772.50;4954941;29;20035;-71
2021/12/04 06:56:31;;;;;;;79.25;18.40;;;;;;;4.35;100.00;99776.88;4955097;29;20133;-70
2021/12/04 06:58:56;;;;;;;82.28;19.35;;;;;;;4.37;100.00;99771.56;4935412;29;20039;-69
2021/12/04 07:01:22;;;;;;;74.35;18.98;;;;;;;4.37;100.00;99761.97;4936621;29;20042;-69
2021/12/04 07:03:48;;;;;;;78.80;19.50;;;;;;;4.36;100.00;99767.25;4944000;29;20039;-69
2021/12/04 07:06:13;;;;;;;69.15;17.92;;;;;;;4.34;100.00;99754.19;4935100;29;20027;-69
2021/12/04 07:08:38;;;;;;;56.72;17.45;;;;;;;4.33;100.00;99759.50;4932571;29;20132;-69
2021/12/04 07:11:05;;;;;;;63.67;18.55;;;;;;;4.32;100.00;99760.41;4935761;29;20043;-71
2021/12/04 07:13:32;;;;;;;63.83;18.45;;;;;;;4.29;100.00;99756.13;4942771;29;20035;-69
2021/12/04 07:16:02;;;;;;;67.57;19.00;;;;;;;4.26;100.00;99743.16;4954406;28;20050;-71
2021/12/04 07:18:28;;;;;;;67.35;17.98;;;;;;;4.28;100.00;99748.34;4949045;29;20098;-70
2021/12/04 07:20:53;;;;;;;73.15;18.40;;;;;;;4.26;100.00;99749.25;4934825;29;20035;-71
2021/12/04 07:23:18;;;;;;;74.50;18.77;;;;;;;4.27;100.00;99757.94;4935212;29;20060;-70
2021/12/04 07:25:44;;;;;;;69.60;18.75;;;;;;;4.24;100.00;99747.59;4935459;29;20373;-69
2021/12/04 07:28:09;;;;;;;71.75;19.02;;;;;;;4.20;100.00;99751.22;4986225;28;20084;-69
2021/12/04 07:30:34;;;;;;;78.30;19.13;;;;;;;4.17;100.00;99732.97;5015221;28;20072;-69
2021/12/04 07:33:00;;;;;;;69.68;18.45;;;;;;;4.20;100.00;99738.97;5032780;28;20903;-69
2021/12/04 07:35:25;;;;;;;83.13;18.67;;;;;;;4.18;100.00;99729.47;5034653;28;20086;-69
2021/12/04 07:37:51;;;;;;;84.88;20.17;;;;;;;4.17;100.00;99722.50;5034120;28;20040;-70
2021/12/04 07:40:16;;;;;;;89.85;20.42;;;;;;;4.15;100.00;99714.72;5025710;28;20031;-69
2021/12/04 07:42:42;;;;;;;91.50;20.65;;;;;;;4.14;100.00;99720.84;5011030;28;20103;-69
2021/12/04 07:45:08;;;;;;;102.38;21.00;;;;;;;4.12;100.00;99712.22;5033842;28;20033;-69
2021/12/04 07:47:34;;;;;;;110.85;22.73;;;;;;;4.05;100.00;99710.72;5030943;28;20022;-69
2021/12/04 07:50:01;;;;;;;108.38;24.15;;;;;;;4.00;100.00;99710.88;5032215;28;20381;-70
2021/12/04 07:52:26;;;;;;;118.78;25.77;;;;;;;3.97;100.00;99704.91;5030923;28;20043;-69
2021/12/04 07:54:52;;;;;;;106.00;23.58;;;;;;;3.96;100.00;99704.03;5019427;28;20417;-69
2021/12/04 07:57:17;;;;;;;98.57;21.92;;;;;;;3.96;100.00;99701.41;5028150;28;20079;-69
2021/12/04 07:59:43;;;;;;;75.95;18.55;;;;;;;3.93;100.00;99697.13;5030573;28;20029;-69
2021/12/04 08:02:09;;;;;;;72.63;16.52;;;;;;;3.90;100.00;99693.78;5024456;28;20072;-69
2021/12/04 08:04:34;;;;;;;58.50;17.05;;;;;;;3.86;100.00;99694.78;5023306;28;20034;-69
2021/12/04 08:07:00;;;;;;;64.15;13.55;;;;;;;3.88;100.00;99691.22;5013795;28;20018;-69
2021/12/04 08:09:25;;;;;;;54.50;14.07;;;;;;;3.89;100.00;99690.31;5014055;28;20029;-68
2021/12/04 08:11:50;;;;;;;49.58;13.73;;;;;;;3.90;100.00;99696.38;5001642;28;20131;-69
2021/12/04 08:14:17;;;;;;;60.78;14.63;;;;;;;3.90;100.00;99701.63;5033662;28;20025;-69
2021/12/04 08:16:43;;;;;;;57.53;12.77;;;;;;;3.90;100.00;99697.25;5045592;28;20442;-69
2021/12/04 08:19:09;;;;;;;41.72;11.52;;;;;;;3.90;100.00;99693.78;5043338;28;20041;-68
2021/12/04 08:21:35;;;;;;;45.03;12.27;;;;;;;3.89;100.00;99703.41;5033182;28;20548;-69
2021/12/04 08:24:02;;;;;;;46.10;11.27;;;;;;;3.92;100.00;99712.91;5031562;28;20030;-69
2021/12/04 08:26:27;;;;;;;53.17;12.65;;;;;;;3.92;100.00;99724.25;5033468;28;20025;-70
2021/12/04 08:28:53;;;;;;;51.13;13.07;;;;;;;3.97;100.00;99724.09;5033225;28;20044;-69
2021/12/04 08:31:18;;;;;;;55.03;13.43;;;;;;;4.02;100.00;99718.69;5033103;28;20100;-70
2021/12/04 08:33:44;;;;;;;65.25;15.38;;;;;;;3.99;100.00;99729.25;5031695;28;20037;-69
2021/12/04 08:36:10;;;;;;;59.95;15.57;;;;;;;4.02;100.00;99716.06;5034902;28;20355;-70
2021/12/04 08:38:36;;;;;;;50.70;13.88;;;;;;;4.00;100.00;99710.88;5032916;28;20056;-70
2021/12/04 08:41:03;;;;;;;54.30;14.38;;;;;;;4.00;100.00;99710.88;5048414;28;20029;-69
2021/12/04 08:43:28;;;;;;;66.05;16.30;;;;;;;3.98;100.00;99703.97;5037027;28;20040;-69
2021/12/04 08:45:55;;;;;;;57.75;15.48;;;;;;;3.99;100.00;99713.53;5037485;28;20025;-69
2021/12/04 08:48:21;;;;;;;61.05;15.95;;;;;;;3.97;100.00;99704.91;5034162;28;20100;-69
2021/12/04 08:50:46;;;;;;;59.45;14.73;;;;;;;4.00;100.00;99697.75;5031934;28;20130;-70
2021/12/04 08:53:12;;;;;;;58.55;16.15;;;;;;;4.02;100.00;99698.56;5032434;28;20107;-70
2021/12/04 08:55:38;;;;;;;61.78;15.93;;;;;;;4.02;100.00;99690.72;5031102;28;20040;-70
2021/12/04 08:58:06;;;;;;;62.80;15.93;;;;;;;4.08;100.00;99690.50;5032452;28;20048;-69
2021/12/04 09:00:48;;;;;;;60.40;16.20;;;;;;;4.13;100.00;99685.09;5032805;28;20040;-69
2021/12/04 09:03:15;;;;;;;51.22;15.07;;;;;;;4.14;100.00;99686.78;5032372;28;20036;-69
2021/12/04 09:05:40;;;;;;;57.90;16.13;;;;;;;4.18;100.00;99680.53;5031212;28;20024;-70
2021/12/04 09:08:07;;;;;;;53.97;15.48;;;;;;;4.21;100.00;99682.19;5031371;28;20030;-70
2021/12/04 09:10:32;;;;;;;55.83;15.60;;;;;;;4.23;100.00;99680.34;5016104;28;20076;-68
2021/12/04 09:12:58;;;;;;;62.88;17.25;;;;;;;4.22;100.00;99673.41;5033001;28;20037;-70
2021/12/04 09:15:26;;;;;;;66.28;16.70;;;;;;;4.25;100.00;99683.78;5020163;28;20029;-69
2021/12/04 09:17:51;;;;;;;68.65;18.10;;;;;;;4.23;100.00;99677.75;5028848;28;20482;-69
2021/12/04 09:20:17;;;;;;;63.35;16.63;;;;;;;4.28;100.00;99670.56;5006712;28;20111;-72
2021/12/04 09:22:45;;;;;;;57.60;16.98;;;;;;;4.30;100.00;99665.25;5026761;28;20381;-69
2021/12/04 09:25:16;;;;;;;55.50;16.63;;;;;;;4.34;100.00;99672.94;5023612;28;20028;-69
2021/12/04 09:33:40;;;;;;;55.53;16.65;;;;;;;4.43;100.00;99669.97;5022367;28;20048;-70
2021/12/04 10:03:03;;;;;;;63.55;19.08;;;;;;;4.58;100.00;99637.06;5034549;28;20087;-69
2021/12/04 10:16:17;;;;;;;79.30;21.83;;;;;;;4.77;100.00;99610.13;5020245;28;20085;-73
2021/12/04 10:19:02;;;;;;;78.65;20.80;;;;;;;4.82;100.00;99602.91;5015916;28;20026;-70
2021/12/04 10:35:00;;;;;;;63.38;19.30;;;;;;;5.06;100.00;99595.81;4951440;29;20031;-70
2021/12/04 10:37:29;;;;;;;58.85;17.48;;;;;;;5.12;100.00;99610.44;4954742;28;20031;-70
2021/12/04 10:40:05;;;;;;;51.90;17.98;;;;;;;5.05;100.00;99619.47;4954168;28;20043;-70
2021/12/04 10:42:51;;;;;;;57.30;19.52;;;;;;;4.97;100.00;99616.31;4954031;28;20166;-71
2021/12/04 10:45:17;;;;;;;56.65;18.67;;;;;;;4.99;100.00;99604.00;4954856;29;20062;-71
2021/12/04 10:47:50;;;;;;;47.30;17.70;;;;;;;4.99;100.00;99606.63;4954837;29;20047;-71
2021/12/04 10:55:17;;;;;;;50.03;17.33;;;;;;;4.92;100.00;99608.63;4954832;29;20428;-70
2021/12/04 11:03:04;;;;;;;54.60;17.70;;;;;;;5.04;100.00;99589.75;5032142;28;20129;-70
2021/12/04 11:36:15;;;;;;;94.53;23.33;;;;;;;4.90;100.00;99527.38;5056674;23;20184;-69
2021/12/04 11:43:48;;;;;;;92.97;23.00;;;;;;;4.88;100.00;99520.47;4994814;28;20136;-71
2021/12/04 11:46:22;;;;;;;93.50;23.10;;;;;;;4.93;100.00;99514.13;4995834;28;20018;-71
2021/12/04 11:48:48;;;;;;;89.22;21.75;;;;;;;4.99;100.00;99502.53;4994978;28;20030;-69
2021/12/04 11:51:20;;;;;;;99.07;23.48;;;;;;;5.01;100.00;99505.06;4999100;28;20414;-70
2021/12/04 11:53:47;;;;;;;100.63;23.45;;;;;;;5.07;100.00;99507.44;5013181;28;20053;-70
2021/12/04 11:56:21;;;;;;;92.15;23.35;;;;;;;5.12;100.00;99508.09;5011463;28;20022;-71
2021/12/04 11:58:50;;;;;;;85.38;22.95;;;;;;;5.12;100.00;99507.25;5012435;28;20437;-69
2021/12/04 12:01:27;;;;;;;80.43;21.80;;;;;;;5.12;100.00;99518.56;5008569;28;20391;-71
2021/12/04 12:03:55;;;;;;;84.10;20.50;;;;;;;5.11;100.00;99519.50;4994573;28;20482;-70
2021/12/04 12:06:32;;;;;;;74.10;19.45;;;;;;;5.16;100.00;99528.00;4996084;28;20382;-70
2021/12/04 12:09:05;;;;;;;73.43;21.33;;;;;;;5.12;100.00;99523.00;4994338;28;20466;-70
2021/12/04 12:11:31;;;;;;;77.50;21.08;;;;;;;5.14;100.00;99515.88;5002267;28;20479;-69
2021/12/04 12:14:11;;;;;;;75.40;20.15;;;;;;;5.13;100.00;99514.16;5012317;28;20033;-70
2021/12/04 12:16:45;;;;;;;76.15;20.23;;;;;;;5.11;100.00;99511.63;5011071;28;20031;-70
2021/12/04 12:19:28;;;;;;;70.03;20.95;;;;;;;5.14;100.00;99498.38;5013763;28;20699;-69
2021/12/04 12:22:01;;;;;;;84.28;21.10;;;;;;;5.12;100.00;99492.34;5003954;28;20044;-69
2021/12/04 12:37:49;;;;;;;71.15;18.10;;;;;;;5.26;100.00;99486.47;4993079;28;20030;-69
2021/12/04 12:40:18;;;;;;;63.33;17.23;;;;;;;5.24;100.00;99480.44;4994062;28;20101;-70
2021/12/04 12:42:44;;;;;;;63.92;17.73;;;;;;;5.22;100.00;99480.50;4993413;28;20038;-70
2021/12/04 12:45:31;;;;;;;67.25;17.80;;;;;;;5.22;100.00;99484.91;4993674;28;20097;-70
2021/12/04 12:48:01;;;;;;;66.18;17.40;;;;;;;5.20;100.00;99479.72;4993017;28;20033;-70
2021/12/04 12:50:43;;;;;;;56.85;15.23;;;;;;;5.21;100.00;99483.22;4993313;28;20052;-70
2021/12/04 12:53:25;;;;;;;53.58;16.13;;;;;;;5.25;100.00;99477.75;4993218;28;20026;-69
2021/12/04 12:56:02;;;;;;;47.88;14.50;;;;;;;5.23;100.00;99482.22;4993977;28;20036;-69
2021/12/04 12:58:36;;;;;;;49.15;14.35;;;;;;;5.21;100.00;99465.69;4993307;28;20057;-70
2021/12/04 13:12:51;;;;;;;34.83;11.15;;;;;;;5.34;100.00;99473.00;4991894;28;20100;-69
2021/12/04 13:15:36;;;;;;;31.08;9.55;;;;;;;5.34;100.00;99475.63;4992389;28;20026;-69
2021/12/04 13:18:16;;;;;;;22.10;8.15;;;;;;;5.37;100.00;99472.84;4993044;28;20029;-68
2021/12/04 13:20:44;;;;;;;27.10;7.95;;;;;;;5.33;100.00;99480.06;4993328;28;20445;-69
2021/12/04 13:23:12;;;;;;;49.97;22.85;;;;;;;5.29;100.00;99496.00;4992642;28;20018;-69
2021/12/04 13:25:38;;;;;;;26.27;10.57;;;;;;;5.29;100.00;99485.50;4991398;28;20032;-69
2021/12/04 13:30:29;;;;;;;14.05;6.07;;;;;;;5.29;100.00;99491.59;4992765;28;20046;-69
2021/12/04 13:32:54;;;;;;;17.70;7.18;;;;;;;5.24;100.00;99496.19;4993405;28;20030;-69
2021/12/04 13:35:22;;;;;;;22.75;6.65;;;;;;;5.22;100.00;99491.00;4994759;28;20050;-69
2021/12/04 13:37:50;;;;;;;20.35;8.25;;;;;;;5.21;100.00;99498.97;5012833;28;20021;-69
2021/12/04 13:40:19;;;;;;;15.00;5.38;;;;;;;5.22;100.00;99498.03;4989640;28;20058;-68
2021/12/04 13:42:45;;;;;;;14.65;5.90;;;;;;;5.21;100.00;99496.34;4994458;28;20045;-69
2021/12/04 13:45:15;;;;;;;14.38;5.05;;;;;;;5.18;100.00;99501.69;4994293;28;20045;-68
2021/12/04 13:47:41;;;;;;;9.43;3.25;;;;;;;5.20;100.00;99499.88;5006889;28;20076;-68
2021/12/04 13:52:53;;;;;;;5.05;1.63;;;;;;;5.23;100.00;99508.47;4996391;28;20108;-68
2021/12/04 13:55:19;;;;;;;5.20;1.80;;;;;;;5.21;100.00;99502.44;5010291;28;20022;-68
2021/12/04 13:57:44;;;;;;;6.80;2.45;;;;;;;5.22;100.00;99517.25;5007858;28;20095;-68
2021/12/04 14:00:12;;;;;;;11.63;5.10;;;;;;;5.22;100.00;99511.16;4995596;28;20096;-68
2021/12/04 14:02:38;;;;;;;5.40;1.77;;;;;;;5.25;100.00;99514.47;5004652;28;20038;-69
2021/12/04 14:05:09;;;;;;;5.93;2.90;;;;;;;5.24;100.00;99509.31;5009224;28;20092;-69
2021/12/04 14:07:36;;;;;;;3.90;1.70;;;;;;;5.24;100.00;99509.31;5005538;28;20046;-70
2021/12/04 14:10:19;;;;;;;4.07;2.03;;;;;;;5.24;100.00;99504.06;5007917;28;20080;-68
2021/12/04 14:12:46;;;;;;;3.75;1.58;;;;;;;5.27;100.00;99513.56;5005369;28;20029;-68
2021/12/04 14:15:15;;;;;;;2.72;1.52;;;;;;;5.27;100.00;99522.31;5009003;28;20092;-68
2021/12/04 14:17:41;;;;;;;3.97;1.80;;;;;;;5.25;100.00;99526.75;5011949;28;20386;-69
2021/12/04 14:20:08;;;;;;;5.38;2.00;;;;;;;5.24;100.00;99523.31;5012694;28;20478;-68
2021/12/04 14:22:33;;;;;;;5.53;2.17;;;;;;;5.27;100.00;99522.31;5012348;28;20664;-67
2021/12/04 14:25:02;;;;;;;6.05;1.70;;;;;;;5.28;100.00;99520.53;5003691;28;20106;-69
2021/12/04 14:27:35;;;;;;;4.25;2.00;;;;;;;5.25;100.00;99530.22;5011876;28;20100;-68
2021/12/04 14:30:07;;;;;;;5.35;1.95;;;;;;;5.29;100.00;99530.13;5007262;28;20615;-68
2021/12/04 14:32:33;;;;;;;;;;;;;;;5.28;100.00;99544.16;5012287;28;20064;-68
2021/12/04 14:35:07;;;;;;;6.97;1.83;;;;;;;5.28;100.00;99541.53;5012282;28;19909;-69
2021/12/04 14:37:41;;;;;;;4.50;1.63;;;;;;;5.28;100.00;99541.53;5014178;28;20126;-68
2021/12/04 14:40:11;;;;;;;8.70;1.80;;;;;;;5.27;100.00;99545.06;5012132;28;20033;-68
2021/12/04 14:42:37;;;;;;;7.60;1.95;;;;;;;5.29;100.00;99549.31;5015868;28;20034;-69
2021/12/04 14:45:14;;;;;;;6.00;2.13;;;;;;;5.35;100.00;99541.19;5016308;28;20029;-68